createdAt,value
2023-04-09T00:00:52.739Z,89.8833
2023-04-09T00:01:53.110Z,89.8824
2023-04-09T00:02:53.748Z,90.5842
2023-04-09T00:03:54.342Z,89.6134
2023-04-09T00:04:54.668Z,90.4957
2023-04-09T00:05:55.010Z,90.6048
2023-04-09T00:06:55.347Z,90.5618
2023-04-09T00:07:55.687Z,90.9642
2023-04-09T00:08:56.024Z,92.0600
2023-04-09T00:09:56.341Z,91.4041
2023-04-09T00:10:56.713Z,91.8848
2023-04-09T00:11:57.163Z,91.9010
2023-04-09T00:12:57.567Z,91.7558
2023-04-09T00:13:57.908Z,91.0170
2023-04-09T00:14:58.259Z,91.4309
2023-04-09T00:15:58.617Z,91.3778
2023-04-09T00:16:58.964Z,91.1143
2023-04-09T00:17:59.747Z,91.0129
2023-04-09T00:19:00.140Z,90.7474
2023-04-09T00:20:00.516Z,90.9301
2023-04-09T00:21:00.822Z,91.4343
2023-04-09T00:22:01.207Z,91.3787
2023-04-09T00:23:01.590Z,90.9210
2023-04-09T00:24:02.033Z,90.6570
2023-04-09T00:25:02.440Z,90.8348
2023-04-09T00:26:02.837Z,90.5461
2023-04-09T00:27:03.237Z,91.2875
2023-04-09T00:28:03.596Z,90.7726
2023-04-09T00:29:03.982Z,90.9632
2023-04-09T00:30:04.383Z,90.7668
2023-04-09T00:31:04.737Z,90.6492
2023-04-09T00:32:05.236Z,91.6347
2023-04-09T00:33:05.734Z,91.9242
2023-04-09T00:34:06.007Z,91.6871
2023-04-09T00:35:06.411Z,91.7496
2023-04-09T00:36:06.764Z,91.3432
2023-04-09T00:37:07.116Z,91.4949
2023-04-09T00:38:07.580Z,91.4227
2023-04-09T00:39:07.918Z,91.7575
2023-04-09T00:40:08.319Z,92.3258
2023-04-09T00:41:08.699Z,91.6888
2023-04-09T00:42:09.098Z,91.3586
2023-04-09T00:43:09.480Z,91.3970
2023-04-09T00:44:09.818Z,92.4610
2023-04-09T00:45:10.218Z,91.7663
2023-04-09T00:46:10.696Z,91.7919
2023-04-09T00:47:11.077Z,92.4532
2023-04-09T00:48:11.500Z,92.3564
2023-04-09T00:49:11.849Z,92.0906
2023-04-09T00:50:12.260Z,92.2488
2023-04-09T00:51:12.646Z,92.1375
2023-04-09T00:52:13.047Z,92.2813
2023-04-09T00:53:13.423Z,92.3941
2023-04-09T00:54:13.880Z,92.2357
2023-04-09T00:55:14.226Z,92.2628
2023-04-09T00:56:14.662Z,93.0027
2023-04-09T00:57:15.045Z,93.0706
2023-04-09T00:58:15.386Z,93.1066
2023-04-09T00:59:15.805Z,92.8952
2023-04-09T01:00:16.154Z,93.0228
2023-04-09T01:01:16.626Z,92.5947
2023-04-09T01:02:17.132Z,92.4833
2023-04-09T01:03:17.716Z,92.9070
2023-04-09T01:04:18.117Z,92.7474
2023-04-09T01:05:18.509Z,92.7574
2023-04-09T01:06:18.909Z,92.5600
2023-04-09T01:07:19.304Z,92.5710
2023-04-09T01:08:19.654Z,92.5668
2023-04-09T01:09:20.031Z,91.4606
2023-04-09T01:10:20.385Z,91.4155
2023-04-09T01:11:20.757Z,92.2229
2023-04-09T01:12:21.208Z,92.1795
2023-04-09T01:13:21.608Z,92.3330
2023-04-09T01:14:22.075Z,92.6689
2023-04-09T01:15:22.490Z,92.2335
2023-04-09T01:16:22.945Z,91.9409
2023-04-09T01:17:23.348Z,92.0549
2023-04-09T01:18:23.775Z,91.6607
2023-04-09T01:19:24.171Z,91.3173
2023-04-09T01:20:24.530Z,91.3660
2023-04-09T01:21:24.906Z,91.3300
2023-04-09T01:22:25.360Z,91.0711
2023-04-09T01:23:25.745Z,91.4292
2023-04-09T01:24:26.215Z,91.1153
2023-04-09T01:25:26.664Z,90.7988
2023-04-09T01:26:26.984Z,91.5183
2023-04-09T01:27:27.388Z,91.8097
2023-04-09T01:28:27.832Z,91.6864
2023-04-09T01:29:28.300Z,91.9036
2023-04-09T01:30:28.749Z,92.1394
2023-04-09T01:31:29.127Z,91.0174
2023-04-09T01:32:29.702Z,91.5716
2023-04-09T01:33:30.084Z,92.1645
2023-04-09T01:34:30.434Z,92.1106
2023-04-09T01:35:30.924Z,92.0955
2023-04-09T01:36:31.333Z,91.6358
2023-04-09T01:37:31.780Z,92.4224
2023-04-09T01:38:32.252Z,91.7499
2023-04-09T01:39:32.608Z,91.5983
2023-04-09T01:40:33.024Z,92.2869
2023-04-09T01:41:33.395Z,92.1438
2023-04-09T01:42:33.774Z,92.7562
2023-04-09T01:43:34.253Z,92.4928
2023-04-09T01:44:34.644Z,92.2454
2023-04-09T01:45:35.006Z,92.4500
2023-04-09T01:46:35.523Z,92.0997
2023-04-09T01:47:36.485Z,91.5004
2023-04-09T01:48:36.838Z,91.6456
2023-04-09T01:49:37.220Z,91.2503
2023-04-09T01:50:37.630Z,91.2453
2023-04-09T01:51:37.991Z,92.6355
2023-04-09T01:52:38.386Z,91.9065
2023-04-09T01:53:38.726Z,91.9651
2023-04-09T01:54:39.098Z,92.1607
2023-04-09T01:55:39.487Z,92.5385
2023-04-09T01:56:39.860Z,92.5075
2023-04-09T01:57:40.315Z,92.1346
2023-04-09T01:58:40.726Z,92.8838
2023-04-09T01:59:41.182Z,92.8430
2023-04-09T02:00:41.517Z,93.6470
2023-04-09T02:01:42.157Z,92.9084
2023-04-09T02:02:42.769Z,93.3993
2023-04-09T02:03:43.543Z,93.3945
2023-04-09T02:04:43.916Z,93.2781
2023-04-09T02:05:44.275Z,92.8600
2023-04-09T02:06:44.659Z,93.8360
2023-04-09T02:07:45.150Z,94.3337
2023-04-09T02:08:45.629Z,93.2898
2023-04-09T02:09:46.015Z,93.1834
2023-04-09T02:10:46.406Z,93.3066
2023-04-09T02:11:46.853Z,93.5409
2023-04-09T02:12:47.271Z,93.1825
2023-04-09T02:13:47.660Z,93.0381
2023-04-09T02:14:48.029Z,93.0547
2023-04-09T02:15:48.519Z,93.5583
2023-04-09T02:16:48.972Z,93.4706
2023-04-09T02:17:49.609Z,92.4966
2023-04-09T02:18:50.895Z,93.2582
2023-04-09T02:19:51.810Z,93.0118
2023-04-09T02:20:52.210Z,92.6680
2023-04-09T02:21:52.621Z,92.5366
2023-04-09T02:22:52.943Z,92.9026
2023-04-09T02:23:53.347Z,93.6852
2023-04-09T02:24:53.777Z,93.6177
2023-04-09T02:25:54.188Z,93.7530
2023-04-09T02:26:54.603Z,93.2325
2023-04-09T02:27:54.985Z,93.4452
2023-04-09T02:28:55.343Z,92.7224
2023-04-09T02:29:55.735Z,93.5156
2023-04-09T02:30:56.176Z,93.8521
2023-04-09T02:31:56.623Z,94.0647
2023-04-09T02:32:57.058Z,93.6747
2023-04-09T02:33:57.471Z,94.0338
2023-04-09T02:34:57.927Z,93.7198
2023-04-09T02:35:58.413Z,93.4666
2023-04-09T02:36:58.799Z,93.8741
2023-04-09T02:37:59.207Z,93.6915
2023-04-09T02:38:59.612Z,93.3991
2023-04-09T02:39:59.983Z,93.6942
2023-04-09T02:41:00.390Z,93.8449
2023-04-09T02:42:00.761Z,93.4423
2023-04-09T02:43:01.217Z,93.2743
2023-04-09T02:44:01.622Z,93.6848
2023-04-09T02:45:02.014Z,93.1965
2023-04-09T02:46:02.566Z,92.9217
2023-04-09T02:47:02.999Z,92.5018
2023-04-09T02:48:03.472Z,92.4118
2023-04-09T02:49:03.884Z,92.6301
2023-04-09T02:50:04.325Z,92.6839
2023-04-09T02:51:04.703Z,92.7706
2023-04-09T02:52:05.334Z,93.5275
2023-04-09T02:53:05.752Z,92.9101
2023-04-09T02:54:06.194Z,92.5154
2023-04-09T02:55:06.575Z,92.5516
2023-04-09T02:56:06.972Z,92.9217
2023-04-09T02:57:07.353Z,92.7195
2023-04-09T02:58:07.779Z,92.7055
2023-04-09T02:59:08.202Z,92.4111
2023-04-09T03:00:08.625Z,92.1739
2023-04-09T03:01:09.084Z,92.1756
2023-04-09T03:02:09.679Z,92.4616
2023-04-09T03:03:10.714Z,92.7067
2023-04-09T03:04:11.759Z,92.7472
2023-04-09T03:05:12.161Z,93.2996
2023-04-09T03:06:12.549Z,93.2778
2023-04-09T03:07:12.911Z,92.9880
2023-04-09T03:08:13.419Z,92.6744
2023-04-09T03:09:13.840Z,92.6161
2023-04-09T03:10:14.348Z,92.7355
2023-04-09T03:11:14.753Z,92.7695
2023-04-09T03:12:15.153Z,94.0323
2023-04-09T03:13:15.625Z,93.8763
2023-04-09T03:14:16.029Z,93.6103
2023-04-09T03:15:17.269Z,93.6831
2023-04-09T03:16:17.753Z,93.9317
2023-04-09T03:17:18.174Z,94.0152
2023-04-09T03:18:18.612Z,94.1367
2023-04-09T03:19:19.038Z,93.7964
2023-04-09T03:20:19.441Z,94.5768
2023-04-09T03:21:19.844Z,94.9786
2023-04-09T03:22:20.269Z,94.9926
2023-04-09T03:23:20.754Z,94.8285
2023-04-09T03:24:21.153Z,94.8561
2023-04-09T03:25:21.569Z,94.6087
2023-04-09T03:26:21.961Z,94.8028
2023-04-09T03:27:22.358Z,94.6334
2023-04-09T03:28:22.855Z,94.5818
2023-04-09T03:29:23.293Z,93.6907
2023-04-09T03:30:23.670Z,94.5829
2023-04-09T03:31:24.218Z,94.5417
2023-04-09T03:32:24.711Z,94.0975
2023-04-09T03:33:25.153Z,94.2429
2023-04-09T03:34:25.576Z,94.7143
2023-04-09T03:35:25.962Z,94.5450
2023-04-09T03:36:26.372Z,94.3330
2023-04-09T03:37:26.855Z,93.8650
2023-04-09T03:38:27.212Z,93.6146
2023-04-09T03:39:27.631Z,94.1776
2023-04-09T03:40:28.114Z,94.5617
2023-04-09T03:41:28.516Z,94.0981
2023-04-09T03:42:28.940Z,94.2391
2023-04-09T03:43:29.356Z,94.3826
2023-04-09T03:44:29.824Z,94.4969
2023-04-09T03:45:30.239Z,93.8640
2023-04-09T03:46:30.912Z,94.2527
2023-04-09T03:47:31.418Z,94.3111
2023-04-09T03:48:31.865Z,94.1551
2023-04-09T03:49:32.265Z,94.2002
2023-04-09T03:50:32.674Z,94.2941
2023-04-09T03:51:33.066Z,94.5984
2023-04-09T03:52:33.584Z,94.6978
2023-04-09T03:53:33.957Z,94.6337
2023-04-09T03:54:34.414Z,94.4836
2023-04-09T03:55:34.841Z,94.3887
2023-04-09T03:56:35.241Z,93.9615
2023-04-09T03:57:35.634Z,94.0039
2023-04-09T03:58:36.101Z,94.2432
2023-04-09T03:59:36.494Z,94.1765
2023-04-09T04:00:36.896Z,94.4000
2023-04-09T04:01:37.388Z,94.3537
2023-04-09T04:02:38.295Z,94.8469
2023-04-09T04:03:39.248Z,94.7409
2023-04-09T04:04:39.789Z,95.4026
2023-04-09T04:05:40.159Z,95.2388
2023-04-09T04:06:40.591Z,94.9838
2023-04-09T04:07:40.948Z,94.9320
2023-04-09T04:08:41.408Z,94.6761
2023-04-09T04:09:41.836Z,94.9187
2023-04-09T04:10:42.387Z,94.9599
2023-04-09T04:11:42.724Z,94.5818
2023-04-09T04:12:43.143Z,94.7779
2023-04-09T04:13:43.589Z,94.7622
2023-04-09T04:14:43.967Z,94.5470
2023-04-09T04:15:44.360Z,94.6438
2023-04-09T04:16:44.849Z,94.6774
2023-04-09T04:17:45.408Z,94.4833
2023-04-09T04:18:45.853Z,95.0246
2023-04-09T04:19:46.326Z,94.7362
2023-04-09T04:20:46.766Z,94.9206
2023-04-09T04:21:47.246Z,95.1095
2023-04-09T04:22:47.657Z,94.8066
2023-04-09T04:23:48.176Z,95.0974
2023-04-09T04:24:48.617Z,95.4939
2023-04-09T04:25:49.088Z,95.3656
2023-04-09T04:26:49.528Z,95.3120
2023-04-09T04:27:49.976Z,94.8543
2023-04-09T04:28:51.036Z,94.9891
2023-04-09T04:29:51.818Z,94.7524
2023-04-09T04:30:52.240Z,95.2719
2023-04-09T04:31:52.827Z,95.3172
2023-04-09T04:32:53.377Z,95.5862
2023-04-09T04:33:53.808Z,95.4410
2023-04-09T04:34:54.275Z,95.2757
2023-04-09T04:35:54.800Z,95.1772
2023-04-09T04:36:55.229Z,94.5921
2023-04-09T04:37:55.724Z,93.9848
2023-04-09T04:38:56.163Z,94.0554
2023-04-09T04:39:56.610Z,94.0446
2023-04-09T04:40:57.165Z,94.0369
2023-04-09T04:41:57.598Z,94.4735
2023-04-09T04:42:57.988Z,94.6663
2023-04-09T04:43:58.474Z,94.9149
2023-04-09T04:44:58.897Z,94.7166
2023-04-09T04:45:59.510Z,93.8617
2023-04-09T04:46:59.942Z,93.6329
2023-04-09T04:48:00.513Z,94.1077
2023-04-09T04:49:00.981Z,93.9188
2023-04-09T04:50:01.516Z,93.8318
2023-04-09T04:51:01.985Z,94.0248
2023-04-09T04:52:02.438Z,93.8524
2023-04-09T04:53:02.878Z,93.8313
2023-04-09T04:54:03.408Z,93.8013
2023-04-09T04:55:03.914Z,93.4501
2023-04-09T04:56:04.333Z,93.8769
2023-04-09T04:57:04.838Z,93.1955
2023-04-09T04:58:05.272Z,93.2325
2023-04-09T04:59:05.815Z,93.7690
2023-04-09T05:00:06.221Z,93.8467
2023-04-09T05:01:06.702Z,93.5703
2023-04-09T05:02:07.240Z,92.8456
2023-04-09T05:03:07.793Z,92.4720
2023-04-09T05:04:08.311Z,92.4478
2023-04-09T05:05:08.734Z,92.3409
2023-04-09T05:06:09.195Z,93.5097
2023-04-09T05:07:09.692Z,93.5546
2023-04-09T05:08:10.100Z,93.4996
2023-04-09T05:09:10.580Z,92.9597
2023-04-09T05:10:11.081Z,93.8466
2023-04-09T05:11:11.545Z,93.8608
2023-04-09T05:12:12.024Z,93.7203
2023-04-09T05:13:12.483Z,92.8949
2023-04-09T05:14:12.994Z,92.8598
2023-04-09T05:15:13.433Z,93.3116
2023-04-09T05:16:13.902Z,93.8680
2023-04-09T05:17:14.300Z,93.2332
2023-04-09T05:18:14.739Z,92.6561
2023-04-09T05:19:15.184Z,92.8381
2023-04-09T05:20:15.620Z,92.6516
2023-04-09T05:21:16.066Z,92.8662
2023-04-09T05:22:16.460Z,92.9475
2023-04-09T05:23:16.971Z,93.6116
2023-04-09T05:24:17.454Z,93.5251
2023-04-09T05:25:17.915Z,93.3184
2023-04-09T05:26:18.330Z,93.0483
2023-04-09T05:27:18.794Z,92.3346
2023-04-09T05:28:19.239Z,92.9920
2023-04-09T05:29:19.769Z,93.6584
2023-04-09T05:30:20.267Z,93.6167
2023-04-09T05:31:20.712Z,93.3329
2023-04-09T05:32:21.310Z,92.9240
2023-04-09T05:33:21.828Z,93.7846
2023-04-09T05:34:22.305Z,93.7332
2023-04-09T05:35:22.775Z,93.9219
2023-04-09T05:36:23.273Z,94.0580
2023-04-09T05:37:23.715Z,93.6321
2023-04-09T05:38:24.183Z,93.7668
2023-04-09T05:39:24.676Z,93.5772
2023-04-09T05:40:25.181Z,93.1113
2023-04-09T05:41:25.577Z,93.0854
2023-04-09T05:42:26.049Z,93.3403
2023-04-09T05:43:26.453Z,93.7101
2023-04-09T05:44:27.035Z,93.6719
2023-04-09T05:45:27.451Z,93.7928
2023-04-09T05:46:28.035Z,94.1115
2023-04-09T05:47:28.478Z,93.7135
2023-04-09T05:48:28.882Z,93.8353
2023-04-09T05:49:29.317Z,94.0401
2023-04-09T05:50:31.851Z,93.2217
2023-04-09T05:51:30.259Z,93.3124
2023-04-09T05:52:30.713Z,93.2274
2023-04-09T05:53:31.200Z,92.7487
2023-04-09T05:54:31.702Z,92.5846
2023-04-09T05:55:32.147Z,92.8428
2023-04-09T05:56:32.683Z,93.1230
2023-04-09T05:57:33.126Z,93.2297
2023-04-09T05:58:33.572Z,92.9387
2023-04-09T05:59:34.033Z,92.8440
2023-04-09T06:00:34.483Z,92.4579
2023-04-09T06:01:34.951Z,92.8798
2023-04-09T06:02:35.487Z,92.6837
2023-04-09T06:03:36.225Z,92.4844
2023-04-09T06:04:36.768Z,92.7480
2023-04-09T06:05:37.168Z,92.9449
2023-04-09T06:06:37.613Z,92.8242
2023-04-09T06:07:38.114Z,93.2140
2023-04-09T06:08:38.528Z,92.5116
2023-04-09T06:09:38.938Z,91.9964
2023-04-09T06:10:41.688Z,92.2398
2023-04-09T06:11:39.797Z,91.9513
2023-04-09T06:12:41.356Z,92.1722
2023-04-09T06:13:41.847Z,92.4953
2023-04-09T06:14:42.346Z,92.5190
2023-04-09T06:15:42.823Z,92.0679
2023-04-09T06:16:43.266Z,92.2829
2023-04-09T06:17:43.865Z,92.1238
2023-04-09T06:18:44.265Z,92.4240
2023-04-09T06:19:44.768Z,91.7173
2023-04-09T06:20:45.187Z,91.2363
2023-04-09T06:21:45.632Z,90.7831
2023-04-09T06:22:46.392Z,90.2813
2023-04-09T06:23:46.846Z,89.9205
2023-04-09T06:24:47.347Z,89.9616
2023-04-09T06:25:47.823Z,90.9128
2023-04-09T06:26:48.318Z,90.0288
2023-04-09T06:27:48.747Z,89.7191
2023-04-09T06:28:49.196Z,89.8476
2023-04-09T06:29:49.685Z,89.9004
2023-04-09T06:30:50.240Z,88.9983
2023-04-09T06:31:50.754Z,89.2550
2023-04-09T06:32:55.820Z,88.8804
2023-04-09T06:33:52.644Z,88.4640
2023-04-09T06:34:53.575Z,87.9903
2023-04-09T06:35:54.028Z,88.9459
2023-04-09T06:36:54.533Z,89.0814
2023-04-09T06:37:55.074Z,89.3474
2023-04-09T06:38:55.605Z,88.9681
2023-04-09T06:40:01.965Z,87.9669
2023-04-09T06:40:57.802Z,88.3682
2023-04-09T06:41:58.167Z,87.5536
2023-04-09T06:42:58.631Z,87.8713
2023-04-09T06:43:59.046Z,88.2768
2023-04-09T06:44:59.503Z,87.4611
2023-04-09T06:45:59.954Z,87.4135
2023-04-09T06:47:00.361Z,87.3992
2023-04-09T06:48:00.977Z,86.4196
2023-04-09T06:49:01.382Z,86.4959
2023-04-09T06:50:01.858Z,86.9968
2023-04-09T06:51:02.485Z,87.4738
2023-04-09T06:52:03.098Z,86.7202
2023-04-09T06:53:03.461Z,87.0549
2023-04-09T06:54:04.010Z,86.8424
2023-04-09T06:55:04.473Z,86.6711
2023-04-09T06:56:04.904Z,85.8855
2023-04-09T06:57:05.412Z,87.1489
2023-04-09T06:58:05.843Z,86.6664
2023-04-09T06:59:06.221Z,86.5728
2023-04-09T07:00:06.757Z,86.6306
2023-04-09T07:01:07.226Z,86.5193
2023-04-09T07:02:07.898Z,86.9002
2023-04-09T07:03:08.644Z,86.2328
2023-04-09T07:04:09.243Z,86.2119
2023-04-09T07:05:09.733Z,85.9253
2023-04-09T07:06:10.143Z,86.1314
2023-04-09T07:07:10.780Z,86.1973
2023-04-09T07:08:11.139Z,84.5522
2023-04-09T07:09:11.519Z,84.8547
2023-04-09T07:10:11.955Z,84.4721
2023-04-09T07:11:12.363Z,84.2435
2023-04-09T07:12:12.770Z,84.8780
2023-04-09T07:13:13.213Z,85.1729
2023-04-09T07:14:13.610Z,84.5800
2023-04-09T07:15:14.951Z,84.3681
2023-04-09T07:16:15.513Z,84.8330
2023-04-09T07:17:15.870Z,84.3452
2023-04-09T07:18:16.279Z,84.3817
2023-04-09T07:19:16.708Z,84.2209
2023-04-09T07:20:17.151Z,83.9446
2023-04-09T07:21:17.527Z,83.1880
2023-04-09T07:22:17.880Z,83.2208
2023-04-09T07:23:18.364Z,83.2101
2023-04-09T07:24:18.797Z,83.7337
2023-04-09T07:25:19.190Z,84.4553
2023-04-09T07:26:19.607Z,83.4785
2023-04-09T07:27:20.034Z,83.7129
2023-04-09T07:28:21.402Z,82.8412
2023-04-09T07:29:21.794Z,82.7578
2023-04-09T07:30:22.166Z,83.0592
2023-04-09T07:31:22.595Z,82.9465
2023-04-09T07:32:23.013Z,81.4711
2023-04-09T07:33:23.401Z,81.0854
2023-04-09T07:34:23.764Z,81.6671
2023-04-09T07:35:24.175Z,82.0675
2023-04-09T07:36:24.766Z,81.4498
2023-04-09T07:37:25.186Z,80.4170
2023-04-09T07:38:25.551Z,82.2930
2023-04-09T07:39:26.048Z,81.7752
2023-04-09T07:40:26.643Z,80.8580
2023-04-09T07:41:27.014Z,80.8023
2023-04-09T07:42:27.952Z,80.7371
2023-04-09T07:43:28.332Z,81.0709
2023-04-09T07:44:28.660Z,80.4934
2023-04-09T07:45:29.367Z,82.0290
2023-04-09T07:46:29.904Z,81.7142
2023-04-09T07:47:30.293Z,80.9308
2023-04-09T07:48:31.659Z,81.7305
2023-04-09T07:49:32.099Z,82.3386
2023-04-09T07:50:32.630Z,83.1533
2023-04-09T07:51:33.019Z,82.2465
2023-04-09T07:52:33.411Z,83.3278
2023-04-09T07:53:33.778Z,82.3910
2023-04-09T07:54:34.139Z,82.4686
2023-04-09T07:55:34.560Z,81.9279
2023-04-09T07:56:34.961Z,82.0067
2023-04-09T07:57:35.348Z,81.2460
2023-04-09T07:58:35.922Z,80.3443
2023-04-09T07:59:36.399Z,81.4233
2023-04-09T08:00:36.985Z,81.2823
2023-04-09T08:01:37.532Z,80.1999
2023-04-09T08:02:38.568Z,81.7524
2023-04-09T08:03:39.732Z,81.7322
2023-04-09T08:04:40.353Z,82.5190
2023-04-09T08:05:40.760Z,82.0239
2023-04-09T08:06:41.273Z,81.5899
2023-04-09T08:07:41.684Z,81.7413
2023-04-09T08:08:42.082Z,80.6186
2023-04-09T08:09:42.491Z,81.4528
2023-04-09T08:10:42.960Z,81.1185
2023-04-09T08:11:43.342Z,82.0777
2023-04-09T08:12:43.819Z,81.5065
2023-04-09T08:13:44.260Z,81.2481
2023-04-09T08:14:44.702Z,82.0728
2023-04-09T08:15:45.154Z,82.2995
2023-04-09T08:16:45.653Z,81.8661
2023-04-09T08:17:46.167Z,81.9501
2023-04-09T08:18:46.570Z,79.6895
2023-04-09T08:19:47.085Z,77.7763
2023-04-09T08:20:47.460Z,78.5782
2023-04-09T08:21:47.870Z,78.4054
2023-04-09T08:22:48.185Z,80.2340
2023-04-09T08:23:48.628Z,79.6020
2023-04-09T08:24:48.992Z,79.0531
2023-04-09T08:25:49.370Z,78.6889
2023-04-09T08:26:49.745Z,77.1245
2023-04-09T08:27:50.108Z,77.8545
2023-04-09T08:28:50.817Z,78.9941
2023-04-09T08:29:51.370Z,78.8347
2023-04-09T08:30:51.841Z,79.0796
2023-04-09T08:31:52.235Z,78.5972
2023-04-09T08:32:52.628Z,79.0004
2023-04-09T08:33:52.971Z,79.5446
2023-04-09T08:34:53.370Z,79.0787
2023-04-09T08:35:53.830Z,79.0197
2023-04-09T08:36:54.300Z,78.9669
2023-04-09T08:37:54.658Z,79.4766
2023-04-09T08:38:56.155Z,78.8932
2023-04-09T08:39:56.891Z,78.1547
2023-04-09T08:40:57.370Z,77.8417
2023-04-09T08:41:57.830Z,77.9300
2023-04-09T08:42:58.213Z,78.2416
2023-04-09T08:44:00.367Z,77.5962
2023-04-09T08:45:00.771Z,78.5454
2023-04-09T08:46:01.253Z,77.8152
2023-04-09T08:47:01.641Z,78.2176
2023-04-09T08:48:02.283Z,78.0275
2023-04-09T08:49:02.626Z,77.6902
2023-04-09T08:50:03.022Z,77.2273
2023-04-09T08:51:03.419Z,76.6379
2023-04-09T08:52:03.781Z,76.4272
2023-04-09T08:53:04.470Z,75.8937
2023-04-09T08:54:05.895Z,75.6622
2023-04-09T08:55:06.384Z,75.0413
2023-04-09T08:56:06.743Z,75.6792
2023-04-09T08:57:07.193Z,75.8636
2023-04-09T08:58:07.671Z,75.7193
2023-04-09T08:59:08.099Z,75.2075
2023-04-09T09:00:08.562Z,75.8742
2023-04-09T09:01:09.045Z,75.6137
2023-04-09T09:02:09.625Z,75.1882
2023-04-09T09:03:10.481Z,75.6365
2023-04-09T09:04:11.361Z,74.8569
2023-04-09T09:05:11.791Z,74.4935
2023-04-09T09:06:12.246Z,74.5209
2023-04-09T09:07:12.710Z,75.0318
2023-04-09T09:08:13.186Z,74.7656
2023-04-09T09:09:13.622Z,75.3993
2023-04-09T09:10:14.061Z,75.6819
2023-04-09T09:11:14.551Z,74.6091
2023-04-09T09:12:15.026Z,73.9393
2023-04-09T09:13:15.475Z,74.7056
2023-04-09T09:14:16.090Z,74.5132
2023-04-09T09:15:16.546Z,74.4576
2023-04-09T09:16:17.070Z,74.3492
2023-04-09T09:17:17.643Z,74.2628
2023-04-09T09:18:18.085Z,73.7134
2023-04-09T09:19:18.528Z,72.3506
2023-04-09T09:20:18.953Z,73.5103
2023-04-09T09:21:19.554Z,73.6911
2023-04-09T09:22:20.016Z,73.8301
2023-04-09T09:23:20.562Z,73.4082
2023-04-09T09:24:21.037Z,73.2981
2023-04-09T09:25:21.516Z,72.6862
2023-04-09T09:26:21.967Z,72.9506
2023-04-09T09:27:22.428Z,73.0305
2023-04-09T09:28:22.882Z,72.8443
2023-04-09T09:29:23.343Z,73.0597
2023-04-09T09:30:23.818Z,72.9864
2023-04-09T09:31:24.520Z,72.0458
2023-04-09T09:32:25.108Z,72.6179
2023-04-09T09:33:26.597Z,72.1633
2023-04-09T09:34:27.043Z,71.7781
2023-04-09T09:35:27.484Z,70.8371
2023-04-09T09:36:27.914Z,70.7549
2023-04-09T09:37:28.415Z,70.6767
2023-04-09T09:38:28.840Z,70.4558
2023-04-09T09:39:29.327Z,71.2904
2023-04-09T09:40:29.769Z,70.6316
2023-04-09T09:41:30.215Z,70.0474
2023-04-09T09:42:30.671Z,70.5080
2023-04-09T09:43:31.113Z,70.5659
2023-04-09T09:44:31.922Z,69.3715
2023-04-09T09:45:32.673Z,68.8095
2023-04-09T09:46:33.420Z,68.7276
2023-04-09T09:47:33.921Z,69.6328
2023-04-09T09:48:34.314Z,68.3382
2023-04-09T09:49:34.753Z,69.2425
2023-04-09T09:50:35.239Z,68.3136
2023-04-09T09:51:35.677Z,67.7437
2023-04-09T09:52:36.074Z,68.1582
2023-04-09T09:53:36.514Z,68.6208
2023-04-09T09:54:36.965Z,69.0478
2023-04-09T09:55:37.413Z,68.0248
2023-04-09T09:56:37.908Z,68.2759
2023-04-09T09:57:38.266Z,68.9256
2023-04-09T09:58:38.709Z,68.3485
2023-04-09T09:59:39.150Z,68.2315
2023-04-09T10:00:39.580Z,67.5279
2023-04-09T10:01:40.104Z,68.4843
2023-04-09T10:02:40.871Z,67.0692
2023-04-09T10:03:41.314Z,67.3571
2023-04-09T10:04:41.821Z,66.8626
2023-04-09T10:05:42.300Z,67.1422
2023-04-09T10:06:42.831Z,67.1791
2023-04-09T10:07:43.238Z,67.6927
2023-04-09T10:08:43.809Z,68.0136
2023-04-09T10:09:44.420Z,66.1751
2023-04-09T10:10:44.878Z,67.4553
2023-04-09T10:11:45.289Z,66.9167
2023-04-09T10:12:45.654Z,65.9405
2023-04-09T10:13:46.123Z,65.6594
2023-04-09T10:14:46.611Z,65.6450
2023-04-09T10:15:47.105Z,66.3958
2023-04-09T10:16:47.525Z,67.0257
2023-04-09T10:17:48.032Z,67.0748
2023-04-09T10:18:48.540Z,67.0493
2023-04-09T10:19:48.957Z,67.4084
2023-04-09T10:20:49.495Z,65.6903
2023-04-09T10:21:49.867Z,66.9095
2023-04-09T10:22:50.292Z,66.0261
2023-04-09T10:23:50.807Z,65.9822
2023-04-09T10:24:51.181Z,66.3726
2023-04-09T10:25:51.553Z,65.2064
2023-04-09T10:26:51.975Z,65.3733
2023-04-09T10:27:52.410Z,65.9280
2023-04-09T10:28:53.044Z,65.9642
2023-04-09T10:29:53.513Z,64.5861
2023-04-09T10:30:54.049Z,63.9241
2023-04-09T10:31:54.458Z,64.0948
2023-04-09T10:32:55.058Z,63.9227
2023-04-09T10:33:55.442Z,63.1948
2023-04-09T10:34:55.857Z,63.0601
2023-04-09T10:35:56.302Z,63.4335
2023-04-09T10:36:56.689Z,62.9795
2023-04-09T10:37:57.149Z,63.4478
2023-04-09T10:38:57.636Z,63.0412
2023-04-09T10:39:58.256Z,62.3505
2023-04-09T10:40:58.708Z,62.4964
2023-04-09T10:41:59.195Z,63.5818
2023-04-09T10:42:59.674Z,62.5687
2023-04-09T10:44:00.063Z,63.0049
2023-04-09T10:45:00.481Z,62.5650
2023-04-09T10:46:00.942Z,61.7308
2023-04-09T10:47:01.414Z,61.5724
2023-04-09T10:48:01.915Z,62.4376
2023-04-09T10:49:02.396Z,62.3168
2023-04-09T10:50:02.888Z,61.0051
2023-04-09T10:51:03.363Z,61.7426
2023-04-09T10:52:03.789Z,61.1298
2023-04-09T10:53:04.185Z,62.1457
2023-04-09T10:54:04.632Z,60.8703
2023-04-09T10:55:05.129Z,59.0618
2023-04-09T10:56:05.576Z,59.1304
2023-04-09T10:57:05.973Z,59.2377
2023-04-09T10:58:06.624Z,58.7938
2023-04-09T10:59:07.535Z,59.2983
2023-04-09T11:00:08.004Z,60.0636
2023-04-09T11:01:08.370Z,60.9611
2023-04-09T11:02:09.102Z,60.2152
2023-04-09T11:03:10.077Z,61.1440
2023-04-09T11:04:11.158Z,58.3352
2023-04-09T11:05:11.672Z,60.6520
2023-04-09T11:06:12.069Z,60.2434
2023-04-09T11:07:12.544Z,61.0724
2023-04-09T11:08:12.882Z,60.9174
2023-04-09T11:09:13.341Z,58.7641
2023-04-09T11:10:13.749Z,59.9746
2023-04-09T11:11:14.236Z,61.0940
2023-04-09T11:12:14.721Z,59.3763
2023-04-09T11:13:15.112Z,57.9463
2023-04-09T11:14:15.656Z,57.4789
2023-04-09T11:15:16.054Z,59.0072
2023-04-09T11:16:24.095Z,57.2077
2023-04-09T11:17:16.844Z,55.4015
2023-04-09T11:18:17.343Z,56.2578
2023-04-09T11:19:17.794Z,57.1097
2023-04-09T11:20:18.155Z,56.7594
2023-04-09T11:21:18.673Z,53.3771
2023-04-09T11:22:19.017Z,54.0899
2023-04-09T11:23:19.370Z,56.0946
2023-04-09T11:24:19.794Z,56.2661
2023-04-09T11:25:20.182Z,55.3536
2023-04-09T11:26:20.641Z,55.0392
2023-04-09T11:27:21.087Z,55.3549
2023-04-09T11:28:21.556Z,55.5164
2023-04-09T11:29:21.866Z,54.4761
2023-04-09T11:30:22.241Z,56.0207
2023-04-09T11:31:22.633Z,56.4280
2023-04-09T11:32:23.200Z,56.8943
2023-04-09T11:33:23.506Z,55.1588
2023-04-09T11:34:23.857Z,55.5759
2023-04-09T11:35:24.197Z,55.8312
2023-04-09T11:36:24.575Z,54.2508
2023-04-09T11:37:25.013Z,53.7977
2023-04-09T11:38:25.377Z,53.9678
2023-04-09T11:39:25.764Z,54.8026
2023-04-09T11:40:26.073Z,52.9193
2023-04-09T11:41:26.523Z,52.6092
2023-04-09T11:42:26.901Z,54.1411
2023-04-09T11:43:27.228Z,55.0877
2023-04-09T11:44:27.555Z,53.8677
2023-04-09T11:45:27.893Z,53.0824
2023-04-09T11:46:28.256Z,55.4379
2023-04-09T11:47:28.627Z,54.3079
2023-04-09T11:48:28.940Z,51.2197
2023-04-09T11:49:29.369Z,52.5157
2023-04-09T11:50:29.707Z,48.5032
2023-04-09T11:51:30.065Z,46.5942
2023-04-09T11:52:30.372Z,44.8900
2023-04-09T11:53:30.729Z,42.3579
2023-04-09T11:54:30.988Z,42.3270
2023-04-09T11:55:31.343Z,42.7260
2023-04-09T11:56:31.598Z,38.4176
2023-04-09T11:57:31.828Z,40.1684
2023-04-09T11:58:32.130Z,39.5529
2023-04-09T11:59:32.507Z,38.7573
2023-04-09T12:00:32.763Z,35.1750
2023-04-09T12:01:33.111Z,38.2138
2023-04-09T12:02:33.782Z,40.2480
2023-04-09T12:03:35.025Z,43.6054
2023-04-09T12:04:35.658Z,42.5912
2023-04-09T12:05:35.866Z,42.8377
2023-04-09T12:06:36.048Z,39.0424
2023-04-09T12:07:36.261Z,38.6297
2023-04-09T12:08:36.407Z,44.0556
2023-04-09T12:09:36.652Z,40.7463
2023-04-09T12:10:36.799Z,40.4883
2023-04-09T12:11:36.990Z,40.3705